Time;durP1;ratioP1;P1;durP2;ratioP2;P2;SDS_P1;SDS_P2;PMS_P1;PMS_P2;Temp;Humidity;BMP_temperature;BMP_pressure;BME280_temperature;BME280_humidity;BME280_pressure;Samples;Min_cycle;Max_cycle;Signal;HPM_P1;HPM_P2
2021/10/08 00:00:59;;;;;;;17.10;13.60;;;10.00;99.90;;;;;;2081138;28;20025;-69
2021/10/08 00:02:00;;;;;;;15.80;12.88;;;10.00;99.90;;;;;;2081395;28;20040;-68
2021/10/08 00:03:01;;;;;;;14.10;12.00;;;10.00;99.90;;;;;;2080996;28;20079;-68
2021/10/08 00:04:01;;;;;;;13.70;11.32;;;9.90;99.90;;;;;;2080989;28;20029;-68
2021/10/08 00:05:03;;;;;;;17.80;12.15;;;9.90;99.90;;;;;;2081207;28;20017;-68
2021/10/08 00:06:04;;;;;;;15.18;11.93;;;9.90;99.90;;;;;;2081378;28;20024;-68
2021/10/08 00:07:05;;;;;;;13.48;11.43;;;9.90;99.90;;;;;;2081014;28;20030;-68
2021/10/08 00:08:05;;;;;;;13.77;11.98;;;9.90;99.90;;;;;;2080258;28;20470;-68
2021/10/08 00:09:06;;;;;;;14.60;11.98;;;9.90;99.90;;;;;;2080171;28;20025;-68
2021/10/08 00:10:07;;;;;;;12.98;11.10;;;9.90;99.90;;;;;;2081283;28;20026;-68
2021/10/08 00:11:08;;;;;;;13.82;11.60;;;9.90;99.90;;;;;;2086026;28;20031;-68
2021/10/08 00:12:09;;;;;;;16.23;11.55;;;9.90;99.90;;;;;;2081265;28;20025;-68
2021/10/08 00:13:10;;;;;;;13.02;11.65;;;9.90;99.90;;;;;;2081133;28;20026;-68
2021/10/08 00:14:11;;;;;;;15.40;12.75;;;9.90;99.90;;;;;;2081144;28;20432;-69
2021/10/08 00:15:11;;;;;;;13.98;11.57;;;9.90;99.90;;;;;;2086014;28;20025;-69
2021/10/08 00:16:13;;;;;;;14.90;13.18;;;9.90;99.90;;;;;;2086842;28;20048;-69
2021/10/08 00:17:14;;;;;;;15.45;13.30;;;9.90;99.90;;;;;;2088217;28;20022;-69
2021/10/08 00:18:14;;;;;;;14.52;12.07;;;9.90;99.90;;;;;;2089576;28;20027;-69
2021/10/08 00:19:15;;;;;;;14.98;12.68;;;9.80;99.90;;;;;;2087632;28;20025;-69
2021/10/08 00:20:16;;;;;;;15.57;12.65;;;9.80;99.90;;;;;;2090416;28;20047;-68
2021/10/08 00:21:17;;;;;;;13.02;11.43;;;9.80;99.90;;;;;;2088581;28;20570;-69
2021/10/08 00:22:17;;;;;;;16.38;12.23;;;9.80;99.90;;;;;;2089589;28;20463;-68
2021/10/08 00:23:18;;;;;;;15.10;12.20;;;9.80;99.90;;;;;;2089103;28;20021;-69
2021/10/08 00:24:19;;;;;;;14.25;12.10;;;9.80;99.90;;;;;;2086059;28;20026;-69
2021/10/08 00:25:19;;;;;;;15.40;12.98;;;9.80;99.90;;;;;;2082482;28;20032;-69
2021/10/08 00:26:20;;;;;;;13.32;12.00;;;9.80;99.90;;;;;;2082986;28;20469;-69
2021/10/08 00:27:20;;;;;;;15.63;12.27;;;9.80;99.90;;;;;;2081037;28;20544;-68
2021/10/08 00:28:21;;;;;;;14.27;12.15;;;9.80;99.90;;;;;;2080811;28;20028;-68
2021/10/08 00:29:22;;;;;;;14.48;12.23;;;9.70;99.90;;;;;;2081032;28;20393;-69
2021/10/08 00:30:24;;;;;;;14.93;11.90;;;9.70;99.90;;;;;;2080777;28;20025;-68
2021/10/08 00:31:24;;;;;;;13.68;11.13;;;9.70;99.90;;;;;;2081068;28;20041;-68
2021/10/08 00:32:25;;;;;;;18.30;11.00;;;9.70;99.90;;;;;;2080892;28;20112;-69
2021/10/08 00:33:25;;;;;;;13.57;11.80;;;9.70;99.90;;;;;;2081242;28;20397;-69
2021/10/08 00:34:26;;;;;;;15.23;12.48;;;9.70;99.90;;;;;;2084575;28;20029;-69
2021/10/08 00:35:26;;;;;;;14.52;12.13;;;9.70;99.90;;;;;;2087750;28;20465;-69
2021/10/08 00:36:27;;;;;;;12.90;11.52;;;9.70;99.90;;;;;;2087002;28;20017;-69
2021/10/08 00:37:28;;;;;;;14.32;12.52;;;9.70;99.90;;;;;;2084704;28;20029;-69
2021/10/08 00:38:28;;;;;;;16.95;12.23;;;9.70;99.90;;;;;;2085817;28;20028;-69
2021/10/08 00:39:29;;;;;;;16.52;11.23;;;9.70;99.90;;;;;;2087943;28;20347;-69
2021/10/08 00:40:33;;;;;;;13.50;11.57;;;9.70;99.90;;;;;;2086549;28;20018;-69
2021/10/08 00:41:34;;;;;;;12.93;11.50;;;9.70;99.90;;;;;;2089042;28;20024;-69
2021/10/08 00:42:35;;;;;;;17.23;12.57;;;9.60;99.90;;;;;;2082308;28;20029;-69
2021/10/08 00:43:36;;;;;;;13.48;11.63;;;9.70;99.90;;;;;;2087470;28;20049;-69
2021/10/08 00:44:36;;;;;;;14.27;12.07;;;9.60;99.90;;;;;;2080996;28;20033;-69
2021/10/08 00:45:38;;;;;;;13.52;12.10;;;9.60;99.90;;;;;;2080852;28;20489;-69
2021/10/08 00:46:39;;;;;;;15.10;11.25;;;9.60;99.90;;;;;;2080787;28;20033;-69
2021/10/08 00:47:39;;;;;;;13.05;11.57;;;9.60;99.90;;;;;;2088031;28;20028;-69
2021/10/08 00:48:41;;;;;;;14.77;11.73;;;9.60;99.90;;;;;;2085026;28;20041;-69
2021/10/08 00:49:41;;;;;;;15.13;11.35;;;9.60;99.90;;;;;;2080901;28;20018;-69
2021/10/08 00:50:45;;;;;;;14.02;12.55;;;9.60;99.90;;;;;;2080288;28;20116;-69
2021/10/08 00:51:46;;;;;;;19.08;12.60;;;9.60;99.90;;;;;;2084109;28;20104;-69
2021/10/08 00:52:46;;;;;;;14.93;12.80;;;9.60;99.90;;;;;;2080894;28;20100;-69
2021/10/08 00:53:47;;;;;;;12.80;11.50;;;9.60;99.90;;;;;;2080981;28;20500;-69
2021/10/08 00:54:47;;;;;;;15.43;12.15;;;9.60;99.90;;;;;;2088683;28;20037;-69
2021/10/08 00:55:50;;;;;;;13.80;12.00;;;9.60;99.90;;;;;;2084259;28;20127;-69
2021/10/08 00:56:53;;;;;;;15.02;11.82;;;9.60;99.90;;;;;;2084922;28;20053;-69
2021/10/08 00:57:53;;;;;;;13.10;11.40;;;9.60;99.90;;;;;;2088825;28;20492;-69
2021/10/08 00:58:54;;;;;;;14.23;11.55;;;9.50;99.90;;;;;;2083499;28;20397;-69
2021/10/08 00:59:55;;;;;;;13.43;11.10;;;9.50;99.90;;;;;;2086580;28;20495;-69
2021/10/08 01:00:56;;;;;;;18.33;13.05;;;9.50;99.90;;;;;;2081116;28;20026;-69
2021/10/08 01:01:56;;;;;;;15.30;12.02;;;9.50;99.90;;;;;;2080535;28;20087;-69
2021/10/08 01:02:57;;;;;;;14.10;11.68;;;9.50;99.90;;;;;;2081470;28;20064;-69
2021/10/08 01:03:58;;;;;;;12.98;11.35;;;9.50;99.90;;;;;;2081108;28;20032;-69
2021/10/08 01:04:58;;;;;;;12.50;10.93;;;9.50;99.90;;;;;;2080391;28;20492;-69
2021/10/08 01:05:59;;;;;;;16.33;11.25;;;9.50;99.90;;;;;;2080164;28;20478;-69
2021/10/08 01:07:00;;;;;;;15.27;12.38;;;9.50;99.90;;;;;;2080672;28;20022;-69
2021/10/08 01:08:00;;;;;;;15.60;11.65;;;9.40;99.90;;;;;;2080886;28;20047;-69
2021/10/08 01:09:01;;;;;;;13.40;11.60;;;9.40;99.90;;;;;;2080420;28;20021;-68
2021/10/08 01:10:03;;;;;;;15.60;12.70;;;9.40;99.90;;;;;;2080784;28;20045;-69
2021/10/08 01:11:04;;;;;;;12.85;10.63;;;9.40;99.90;;;;;;2080641;28;20025;-69
2021/10/08 01:12:06;;;;;;;15.10;12.60;;;9.40;99.90;;;;;;2079897;28;20025;-69
2021/10/08 01:13:08;;;;;;;13.98;11.73;;;9.40;99.90;;;;;;2080912;28;20117;-69
2021/10/08 01:14:09;;;;;;;14.68;11.90;;;9.40;99.90;;;;;;2079810;28;20025;-69
2021/10/08 01:15:10;;;;;;;19.08;12.82;;;9.40;99.90;;;;;;2081999;28;20104;-69
2021/10/08 01:16:10;;;;;;;13.40;11.93;;;9.40;99.90;;;;;;2080436;28;20018;-69
2021/10/08 01:17:15;;;;;;;14.77;11.85;;;9.40;99.90;;;;;;2080934;28;20017;-69
2021/10/08 01:18:16;;;;;;;13.90;11.55;;;9.40;99.90;;;;;;2079974;28;20018;-69
2021/10/08 01:19:17;;;;;;;13.77;11.43;;;9.40;99.90;;;;;;2080854;28;20021;-69
2021/10/08 01:20:17;;;;;;;13.68;11.23;;;9.40;99.90;;;;;;2079773;28;20057;-69
2021/10/08 01:21:18;;;;;;;12.88;11.23;;;9.40;99.90;;;;;;2080101;28;20081;-69
2021/10/08 01:22:18;;;;;;;14.55;11.27;;;9.30;99.90;;;;;;2080324;28;20034;-69
2021/10/08 01:23:19;;;;;;;13.88;11.40;;;9.30;99.90;;;;;;2080644;28;20100;-69
2021/10/08 01:24:20;;;;;;;13.85;11.98;;;9.30;99.90;;;;;;2083581;28;20025;-69
2021/10/08 01:25:20;;;;;;;14.45;11.00;;;9.30;99.90;;;;;;2088762;28;20479;-69
2021/10/08 01:26:21;;;;;;;14.00;12.15;;;9.30;99.90;;;;;;2082171;28;20017;-69
2021/10/08 01:27:22;;;;;;;14.02;11.48;;;9.30;99.90;;;;;;2081645;28;20420;-69
2021/10/08 01:28:22;;;;;;;12.32;11.02;;;9.30;99.90;;;;;;2086500;28;20037;-69
2021/10/08 01:29:23;;;;;;;13.65;12.18;;;9.30;99.90;;;;;;2083487;28;20025;-69
2021/10/08 01:30:24;;;;;;;15.13;11.10;;;9.30;99.90;;;;;;2080560;28;20049;-69
2021/10/08 01:31:25;;;;;;;11.90;10.65;;;9.20;99.90;;;;;;2080526;28;20373;-69
2021/10/08 01:32:27;;;;;;;13.23;11.65;;;9.30;99.90;;;;;;2080125;28;20022;-69
2021/10/08 01:33:28;;;;;;;16.58;11.93;;;9.30;99.90;;;;;;2080738;28;20018;-69
2021/10/08 01:34:28;;;;;;;15.38;11.38;;;9.20;99.90;;;;;;2080413;28;20064;-69
2021/10/08 01:35:29;;;;;;;13.98;11.88;;;9.20;99.90;;;;;;2080459;28;20021;-69
2021/10/08 01:36:30;;;;;;;12.73;11.00;;;9.20;99.90;;;;;;2086646;28;20052;-69
2021/10/08 01:37:31;;;;;;;14.43;11.73;;;9.20;99.90;;;;;;2084510;28;20028;-69
2021/10/08 01:38:32;;;;;;;14.32;12.77;;;9.20;99.90;;;;;;2086538;28;20069;-69
2021/10/08 01:39:32;;;;;;;14.00;11.85;;;9.20;99.90;;;;;;2087991;28;20029;-69
2021/10/08 01:40:34;;;;;;;13.60;11.43;;;9.20;99.90;;;;;;2085945;28;20080;-69
2021/10/08 01:41:35;;;;;;;16.10;11.50;;;9.10;99.90;;;;;;2085077;28;20453;-69
2021/10/08 01:42:36;;;;;;;12.98;11.52;;;9.10;99.90;;;;;;2082788;28;20030;-69
2021/10/08 01:43:36;;;;;;;13.95;11.65;;;9.10;99.90;;;;;;2081026;28;20030;-69
2021/10/08 01:44:37;;;;;;;13.82;11.13;;;9.10;99.90;;;;;;2081371;28;20021;-69
2021/10/08 01:45:50;;;;;;;12.85;11.48;;;9.10;99.90;;;;;;2084778;28;20935;-69
2021/10/08 01:46:51;;;;;;;14.77;11.32;;;9.10;99.90;;;;;;2083914;28;20039;-69
2021/10/08 01:47:52;;;;;;;11.88;10.63;;;9.10;99.90;;;;;;2088556;28;20028;-69
2021/10/08 01:48:52;;;;;;;13.75;11.15;;;9.10;99.90;;;;;;2084486;28;20026;-69
2021/10/08 01:49:54;;;;;;;15.38;11.48;;;9.10;99.90;;;;;;2088554;28;20464;-69
2021/10/08 01:50:54;;;;;;;12.98;11.52;;;9.10;99.90;;;;;;2080186;28;20097;-69
2021/10/08 01:51:55;;;;;;;13.25;10.93;;;9.10;99.90;;;;;;2080309;28;20036;-69
2021/10/08 01:52:58;;;;;;;15.48;11.82;;;9.10;99.90;;;;;;2081088;28;20022;-69
2021/10/08 01:53:59;;;;;;;14.05;10.63;;;9.10;99.90;;;;;;2080859;28;20025;-69
2021/10/08 01:54:59;;;;;;;11.45;10.18;;;9.00;99.90;;;;;;2079742;28;20025;-69
2021/10/08 01:56:00;;;;;;;13.30;10.93;;;9.10;99.90;;;;;;2084069;28;20455;-69
2021/10/08 01:57:00;;;;;;;13.18;11.18;;;9.10;99.90;;;;;;2085429;28;20055;-69
2021/10/08 01:58:01;;;;;;;15.63;11.57;;;9.00;99.90;;;;;;2088226;28;20021;-69
2021/10/08 01:59:02;;;;;;;14.98;11.45;;;9.00;99.90;;;;;;2082244;28;20017;-69
2021/10/08 02:00:04;;;;;;;13.75;11.90;;;9.00;99.90;;;;;;2084645;28;20363;-69
2021/10/08 02:01:05;;;;;;;12.95;11.48;;;9.00;99.90;;;;;;2080426;28;20377;-69
2021/10/08 02:02:06;;;;;;;13.20;11.27;;;9.00;99.90;;;;;;2080419;28;20112;-69
2021/10/08 02:03:06;;;;;;;13.55;11.98;;;9.00;99.90;;;;;;2080024;28;20031;-68
2021/10/08 02:04:07;;;;;;;14.55;11.43;;;9.00;99.90;;;;;;2080352;28;20025;-69
2021/10/08 02:05:08;;;;;;;14.60;11.73;;;9.00;99.90;;;;;;2080229;28;20022;-69
2021/10/08 02:06:09;;;;;;;14.40;11.63;;;9.00;99.90;;;;;;2080156;28;20044;-68
2021/10/08 02:07:10;;;;;;;13.88;11.48;;;9.00;99.90;;;;;;2082808;28;20033;-69
2021/10/08 02:08:10;;;;;;;13.77;11.02;;;9.00;99.90;;;;;;2079686;28;20488;-69
2021/10/08 02:09:11;;;;;;;13.88;11.63;;;9.00;99.90;;;;;;2079993;28;20022;-69
2021/10/08 02:10:12;;;;;;;13.65;11.27;;;8.90;99.90;;;;;;2080282;28;20199;-69
2021/10/08 02:11:12;;;;;;;12.63;11.27;;;9.00;99.90;;;;;;2079305;28;20413;-68
2021/10/08 02:12:13;;;;;;;13.13;11.18;;;9.00;99.90;;;;;;2079724;28;20036;-69
2021/10/08 02:13:13;;;;;;;14.18;11.05;;;9.00;99.90;;;;;;2079925;28;20032;-69
2021/10/08 02:14:14;;;;;;;16.67;12.00;;;8.90;99.90;;;;;;2080451;28;20029;-69
2021/10/08 02:15:15;;;;;;;14.68;12.60;;;8.90;99.90;;;;;;2080138;28;20535;-69
2021/10/08 02:16:15;;;;;;;12.55;10.48;;;8.90;99.90;;;;;;2080396;28;20029;-69
2021/10/08 02:17:16;;;;;;;12.35;11.05;;;8.90;99.90;;;;;;2078705;28;20108;-69
2021/10/08 02:18:16;;;;;;;14.63;10.85;;;8.90;99.90;;;;;;2078864;28;20025;-69
2021/10/08 02:19:17;;;;;;;13.02;11.07;;;8.90;99.90;;;;;;2080112;28;20030;-68
2021/10/08 02:20:17;;;;;;;11.50;10.25;;;8.90;99.90;;;;;;2079665;28;20018;-69
2021/10/08 02:21:19;;;;;;;12.73;11.25;;;8.90;99.90;;;;;;2080568;28;20040;-68
2021/10/08 02:22:20;;;;;;;14.20;11.52;;;8.90;99.90;;;;;;2079960;28;20025;-68
2021/10/08 02:23:20;;;;;;;12.25;11.05;;;8.80;99.90;;;;;;2080217;28;20048;-68
2021/10/08 02:24:21;;;;;;;13.30;11.05;;;8.90;99.90;;;;;;2084284;28;20504;-69
2021/10/08 02:25:22;;;;;;;11.80;10.55;;;8.80;99.90;;;;;;2081387;28;20461;-68
2021/10/08 02:26:23;;;;;;;14.07;11.38;;;8.90;99.90;;;;;;2082485;28;20095;-69
2021/10/08 02:27:23;;;;;;;15.68;11.48;;;8.80;99.90;;;;;;2080177;28;20045;-68
2021/10/08 02:28:24;;;;;;;12.25;9.85;;;8.90;99.90;;;;;;2078674;28;20432;-68
2021/10/08 02:29:25;;;;;;;12.77;10.98;;;8.80;99.90;;;;;;2079427;28;20091;-68
2021/10/08 02:30:26;;;;;;;13.73;10.30;;;8.80;99.90;;;;;;2080083;28;20037;-69
2021/10/08 02:31:28;;;;;;;12.32;10.60;;;8.80;99.90;;;;;;2081136;28;20017;-69
2021/10/08 02:32:29;;;;;;;12.93;10.93;;;8.80;99.90;;;;;;2079945;28;20021;-69
2021/10/08 02:33:30;;;;;;;13.23;10.45;;;8.80;99.90;;;;;;2080482;28;20034;-69
2021/10/08 02:34:31;;;;;;;13.65;10.23;;;8.80;99.90;;;;;;2080560;28;20029;-69
2021/10/08 02:35:32;;;;;;;13.52;10.65;;;8.80;99.90;;;;;;2086363;28;20029;-69
2021/10/08 02:36:32;;;;;;;11.48;10.10;;;8.80;99.90;;;;;;2086430;28;20536;-69
2021/10/08 02:37:33;;;;;;;17.42;11.43;;;8.80;99.90;;;;;;2074547;28;20104;-68
2021/10/08 02:38:35;;;;;;;13.32;11.05;;;8.80;99.90;;;;;;2086039;28;20477;-68
2021/10/08 02:39:35;;;;;;;13.35;11.07;;;8.80;99.90;;;;;;2087588;28;20021;-68
2021/10/08 02:40:36;;;;;;;16.83;10.98;;;8.70;99.90;;;;;;2084818;28;20029;-69
2021/10/08 02:41:37;;;;;;;13.65;10.32;;;8.70;99.90;;;;;;2085010;28;20106;-69
2021/10/08 02:42:37;;;;;;;12.07;9.90;;;8.70;99.90;;;;;;2080211;28;20103;-69
2021/10/08 02:43:38;;;;;;;13.27;11.45;;;8.70;99.90;;;;;;2080277;28;20303;-69
2021/10/08 02:44:38;;;;;;;12.95;10.18;;;8.70;99.90;;;;;;2079962;28;20131;-69
2021/10/08 02:45:40;;;;;;;13.65;10.75;;;8.70;99.90;;;;;;2080048;28;20488;-69
2021/10/08 02:46:41;;;;;;;13.00;10.98;;;8.70;99.90;;;;;;2080356;28;20025;-69
2021/10/08 02:47:42;;;;;;;19.80;11.50;;;8.70;99.90;;;;;;2079886;28;20025;-69
2021/10/08 02:48:42;;;;;;;11.27;9.98;;;8.70;99.90;;;;;;2080769;28;20482;-69
2021/10/08 02:49:43;;;;;;;12.32;10.98;;;8.70;99.90;;;;;;2080182;28;20106;-69
2021/10/08 02:50:44;;;;;;;12.77;10.23;;;8.70;99.90;;;;;;2079702;28;20043;-68
2021/10/08 02:51:44;;;;;;;12.40;10.77;;;8.70;99.90;;;;;;2080318;28;20405;-69
2021/10/08 02:52:45;;;;;;;11.80;10.57;;;8.70;99.90;;;;;;2079946;28;20021;-68
2021/10/08 02:53:46;;;;;;;12.32;10.55;;;8.70;99.90;;;;;;2079992;28;20469;-69
2021/10/08 02:54:46;;;;;;;12.10;10.40;;;8.70;99.90;;;;;;2079956;28;20108;-69
2021/10/08 02:55:47;;;;;;;12.48;10.40;;;8.70;99.90;;;;;;2079174;28;20025;-69
2021/10/08 02:56:48;;;;;;;11.18;10.00;;;8.70;99.90;;;;;;2079495;28;20081;-69
2021/10/08 02:57:48;;;;;;;14.90;11.27;;;8.70;99.90;;;;;;2087393;28;20472;-68
2021/10/08 02:58:49;;;;;;;14.65;10.80;;;8.70;99.90;;;;;;2082512;28;20029;-68
2021/10/08 02:59:49;;;;;;;12.55;10.10;;;8.60;99.90;;;;;;2086644;28;20032;-68
2021/10/08 03:00:50;;;;;;;10.70;9.60;;;8.60;99.90;;;;;;2080125;28;20061;-69
2021/10/08 03:01:51;;;;;;;11.80;10.00;;;8.60;99.90;;;;;;2079822;28;20374;-69
2021/10/08 03:02:51;;;;;;;12.77;10.35;;;8.60;99.90;;;;;;2083022;28;20706;-69
2021/10/08 03:03:52;;;;;;;13.20;11.45;;;8.60;99.90;;;;;;2079796;28;20029;-68
2021/10/08 03:04:52;;;;;;;11.40;9.75;;;8.60;99.90;;;;;;2080145;28;20377;-69
2021/10/08 03:05:53;;;;;;;12.35;9.38;;;8.60;99.90;;;;;;2079803;28;20017;-68
2021/10/08 03:06:56;;;;;;;15.13;10.90;;;8.60;99.90;;;;;;2079961;28;20032;-68
2021/10/08 03:07:57;;;;;;;12.02;9.60;;;8.60;99.90;;;;;;2079729;28;20524;-68
2021/10/08 03:08:57;;;;;;;12.00;10.57;;;8.60;99.90;;;;;;2079220;28;20461;-68
2021/10/08 03:09:58;;;;;;;12.90;11.10;;;8.50;99.90;;;;;;2078928;28;20494;-68
2021/10/08 03:10:58;;;;;;;12.52;10.00;;;8.60;99.90;;;;;;2079436;28;20152;-68
2021/10/08 03:11:59;;;;;;;13.27;10.20;;;8.50;99.90;;;;;;2079867;28;20025;-68
2021/10/08 03:13:00;;;;;;;15.48;10.25;;;8.50;99.90;;;;;;2079592;28;20048;-68
2021/10/08 03:14:00;;;;;;;13.73;10.65;;;8.50;99.90;;;;;;2079771;28;20030;-68
2021/10/08 03:15:02;;;;;;;11.30;9.82;;;8.50;99.90;;;;;;2079533;28;20108;-68
2021/10/08 03:16:02;;;;;;;12.45;11.13;;;8.50;99.90;;;;;;2079710;28;20067;-68
2021/10/08 03:17:03;;;;;;;13.57;9.45;;;8.50;99.90;;;;;;2086223;28;20040;-68
2021/10/08 03:18:03;;;;;;;13.25;9.50;;;8.50;99.90;;;;;;2083496;28;20087;-68
2021/10/08 03:19:04;;;;;;;13.52;9.25;;;8.50;99.90;;;;;;2079573;28;20021;-68
2021/10/08 03:20:07;;;;;;;11.32;10.05;;;8.50;99.90;;;;;;2085238;28;20092;-68
2021/10/08 03:21:07;;;;;;;11.68;9.75;;;8.50;99.90;;;;;;2085009;28;20025;-68
2021/10/08 03:22:09;;;;;;;12.90;9.88;;;8.50;99.90;;;;;;2079962;28;20095;-68
2021/10/08 03:23:09;;;;;;;11.40;9.82;;;8.50;99.90;;;;;;2079586;28;20491;-68
2021/10/08 03:24:10;;;;;;;12.57;10.57;;;8.50;99.90;;;;;;2079607;28;20366;-68
2021/10/08 03:25:11;;;;;;;12.75;10.75;;;8.50;99.90;;;;;;2079604;28;20021;-68
2021/10/08 03:26:11;;;;;;;10.30;9.30;;;8.50;99.90;;;;;;2082791;28;20088;-68
2021/10/08 03:27:12;;;;;;;12.77;10.00;;;8.40;99.90;;;;;;2080101;28;20055;-68
2021/10/08 03:28:13;;;;;;;10.80;9.52;;;8.40;99.90;;;;;;2078785;28;20037;-69
2021/10/08 03:29:13;;;;;;;10.77;9.27;;;8.40;99.90;;;;;;2079560;28;20066;-68
2021/10/08 03:30:15;;;;;;;12.15;10.48;;;8.40;99.90;;;;;;2079476;28;20096;-68
2021/10/08 03:31:15;;;;;;;12.35;9.80;;;8.40;99.90;;;;;;2082268;28;20104;-68
2021/10/08 03:32:16;;;;;;;12.18;10.15;;;8.40;99.90;;;;;;2079504;28;20033;-68
2021/10/08 03:33:16;;;;;;;11.48;9.27;;;8.40;99.90;;;;;;2079731;28;20017;-68
2021/10/08 03:34:17;;;;;;;11.20;9.52;;;8.40;99.90;;;;;;2079374;28;20041;-68
2021/10/08 03:35:17;;;;;;;14.50;10.02;;;8.40;99.90;;;;;;2079171;28;20014;-68
2021/10/08 03:36:40;;;;;;;13.07;10.13;;;8.40;99.90;;;;;;2083711;28;20049;-69
2021/10/08 03:38:44;;;;;;;10.52;9.30;;;8.30;99.90;;;;;;2078994;28;20381;-68
2021/10/08 03:39:48;;;;;;;11.77;9.75;;;8.30;99.90;;;;;;2088044;28;20025;-68
2021/10/08 03:41:05;;;;;;;13.38;9.43;;;8.30;99.90;;;;;;2083585;28;20025;-68
2021/10/08 03:42:06;;;;;;;11.45;9.63;;;8.30;99.90;;;;;;2088305;28;20037;-68
2021/10/08 03:43:06;;;;;;;11.52;9.63;;;8.30;99.90;;;;;;2087835;28;20025;-69
2021/10/08 03:44:08;;;;;;;12.55;9.68;;;8.30;99.90;;;;;;2083083;28;20025;-68
2021/10/08 03:45:13;;;;;;;12.18;9.73;;;8.20;99.90;;;;;;2087882;28;20091;-68
2021/10/08 03:46:15;;;;;;;10.60;8.90;;;8.30;99.90;;;;;;2083170;28;20029;-68
2021/10/08 03:47:20;;;;;;;12.05;9.68;;;8.30;99.90;;;;;;2086278;28;20013;-68
2021/10/08 03:49:33;;;;;;;10.48;9.38;;;8.30;99.90;;;;;;2086062;28;20059;-68
2021/10/08 03:50:34;;;;;;;11.05;8.73;;;8.20;99.90;;;;;;2082288;28;20029;-68
2021/10/08 03:51:35;;;;;;;12.55;9.68;;;8.20;99.90;;;;;;2081259;28;20179;-68
2021/10/08 03:52:36;;;;;;;12.95;9.55;;;8.20;99.90;;;;;;2088167;28;20039;-68
2021/10/08 03:53:36;;;;;;;11.60;9.65;;;8.20;99.90;;;;;;2087673;28;20025;-69
2021/10/08 03:54:37;;;;;;;10.80;8.82;;;8.20;99.90;;;;;;2088122;28;20021;-68
2021/10/08 03:55:38;;;;;;;10.32;9.00;;;8.20;99.90;;;;;;2084750;28;20032;-68
2021/10/08 03:56:42;;;;;;;10.88;9.13;;;8.20;99.90;;;;;;2080712;28;20162;-69
2021/10/08 03:57:43;;;;;;;9.23;8.23;;;8.20;99.90;;;;;;2085546;28;20108;-68
2021/10/08 03:58:43;;;;;;;10.63;9.10;;;8.20;99.90;;;;;;2085240;28;20057;-69
2021/10/08 03:59:44;;;;;;;11.77;9.63;;;8.20;99.90;;;;;;2086294;28;20033;-69
2021/10/08 04:00:45;;;;;;;12.25;9.23;;;8.20;99.90;;;;;;2079806;28;20100;-69
2021/10/08 04:01:45;;;;;;;11.35;9.32;;;8.20;99.90;;;;;;2084064;28;20487;-69
2021/10/08 04:02:46;;;;;;;9.77;8.73;;;8.20;99.90;;;;;;2087959;28;20038;-68
2021/10/08 04:03:47;;;;;;;10.07;8.90;;;8.20;99.90;;;;;;2087591;28;20554;-68
2021/10/08 04:04:48;;;;;;;10.27;9.15;;;8.20;99.90;;;;;;2088135;28;20112;-69
2021/10/08 04:05:48;;;;;;;11.63;8.77;;;8.20;99.90;;;;;;2080932;28;20488;-68
2021/10/08 04:06:49;;;;;;;15.38;10.40;;;8.20;99.90;;;;;;2085716;28;20440;-68
2021/10/08 04:07:49;;;;;;;10.55;9.07;;;8.20;99.90;;;;;;2086428;28;20025;-68
2021/10/08 04:08:50;;;;;;;12.68;8.85;;;8.20;99.90;;;;;;2079200;28;20030;-68
2021/10/08 04:09:51;;;;;;;12.48;9.93;;;8.20;99.90;;;;;;2079132;28;20473;-68
2021/10/08 04:10:51;;;;;;;10.70;9.60;;;8.20;99.90;;;;;;2079655;28;20079;-68
2021/10/08 04:11:52;;;;;;;12.23;9.40;;;8.10;99.90;;;;;;2080728;28;20084;-69
2021/10/08 04:12:52;;;;;;;9.65;8.65;;;8.20;99.90;;;;;;2085635;28;20042;-69
2021/10/08 04:13:54;;;;;;;10.13;9.02;;;8.10;99.90;;;;;;2087291;28;20028;-69
2021/10/08 04:14:54;;;;;;;11.85;9.30;;;8.10;99.90;;;;;;2082948;28;20041;-69
2021/10/08 04:15:55;;;;;;;10.85;9.13;;;8.10;99.90;;;;;;2086594;28;20064;-69
2021/10/08 04:16:55;;;;;;;11.90;9.10;;;8.10;99.90;;;;;;2079482;28;20036;-69
2021/10/08 04:17:56;;;;;;;11.57;9.32;;;8.10;99.90;;;;;;2079398;28;20037;-69
2021/10/08 04:18:56;;;;;;;9.98;8.85;;;8.10;99.90;;;;;;2082992;28;20500;-68
2021/10/08 04:19:57;;;;;;;10.82;9.13;;;8.10;99.90;;;;;;2087748;28;20052;-69
2021/10/08 04:20:57;;;;;;;11.25;8.70;;;8.10;99.90;;;;;;2093728;28;20044;-68
2021/10/08 04:21:58;;;;;;;11.10;8.88;;;8.10;99.90;;;;;;2095908;28;20032;-69
2021/10/08 04:22:58;;;;;;;9.80;8.80;;;8.10;99.90;;;;;;2084767;28;20117;-69
2021/10/08 04:23:59;;;;;;;11.20;9.15;;;8.10;99.90;;;;;;2086807;28;20035;-69
2021/10/08 04:25:00;;;;;;;9.50;8.50;;;8.10;99.90;;;;;;2081901;28;20022;-68
2021/10/08 04:26:00;;;;;;;12.02;9.60;;;8.10;99.90;;;;;;2086632;28;20024;-68
2021/10/08 04:27:01;;;;;;;10.63;9.18;;;8.10;99.90;;;;;;2079616;28;20057;-68
2021/10/08 04:28:01;;;;;;;11.90;9.25;;;8.10;99.90;;;;;;2083089;28;20014;-68
2021/10/08 04:29:02;;;;;;;10.95;9.38;;;8.10;99.90;;;;;;2085512;28;20064;-69
2021/10/08 04:30:04;;;;;;;11.38;9.50;;;8.10;99.90;;;;;;2086916;28;20032;-69
2021/10/08 04:31:04;;;;;;;12.23;9.32;;;8.10;99.90;;;;;;2083824;28;20063;-69
2021/10/08 04:32:05;;;;;;;13.25;9.32;;;8.00;99.90;;;;;;2085236;28;20449;-69
2021/10/08 04:33:17;;;;;;;10.90;9.13;;;8.00;99.90;;;;;;2082387;28;20021;-69
2021/10/08 04:34:18;;;;;;;10.60;9.25;;;8.00;99.90;;;;;;2084833;28;20013;-68
2021/10/08 04:35:18;;;;;;;13.18;8.95;;;8.00;99.90;;;;;;2083317;28;20072;-69
2021/10/08 04:36:19;;;;;;;13.20;10.23;;;8.00;99.90;;;;;;2083441;28;20025;-69
2021/10/08 04:37:19;;;;;;;10.75;9.13;;;8.00;99.90;;;;;;2084901;28;20035;-69
2021/10/08 04:38:20;;;;;;;10.45;8.82;;;8.00;99.90;;;;;;2085818;28;20016;-69
2021/10/08 04:39:20;;;;;;;15.85;9.20;;;8.00;99.90;;;;;;2086344;28;20024;-69
2021/10/08 04:40:21;;;;;;;13.13;10.48;;;8.00;99.90;;;;;;2084394;28;20052;-69
2021/10/08 04:41:21;;;;;;;15.45;10.40;;;8.00;99.90;;;;;;2087574;28;20029;-69
2021/10/08 04:42:22;;;;;;;13.45;10.27;;;8.00;99.90;;;;;;2087994;28;20033;-69
2021/10/08 04:43:23;;;;;;;11.40;9.93;;;8.00;99.90;;;;;;2086779;28;20029;-69
2021/10/08 04:44:23;;;;;;;12.65;9.93;;;8.00;99.90;;;;;;2086056;28;20454;-69
2021/10/08 04:45:24;;;;;;;14.82;9.63;;;8.00;99.90;;;;;;2085757;28;20021;-69
2021/10/08 04:46:25;;;;;;;14.57;9.05;;;8.00;99.90;;;;;;2084179;28;20048;-69
2021/10/08 04:47:25;;;;;;;12.27;10.13;;;8.00;99.90;;;;;;2082485;28;20482;-69
2021/10/08 04:48:26;;;;;;;11.02;9.40;;;8.00;99.90;;;;;;2081944;28;20025;-69
2021/10/08 04:49:26;;;;;;;12.85;9.43;;;8.00;99.90;;;;;;2083963;28;20022;-69
2021/10/08 04:50:27;;;;;;;10.35;9.25;;;8.00;99.90;;;;;;2082396;28;20064;-69
2021/10/08 04:51:27;;;;;;;11.05;9.38;;;8.00;99.90;;;;;;2082352;28;20025;-69
2021/10/08 04:52:28;;;;;;;15.85;10.05;;;8.00;99.90;;;;;;2082115;28;20029;-69
2021/10/08 04:53:28;;;;;;;10.85;9.50;;;8.00;99.90;;;;;;2084145;28;20045;-69
2021/10/08 04:54:29;;;;;;;10.65;9.50;;;8.00;99.90;;;;;;2083223;28;20049;-69
2021/10/08 04:55:30;;;;;;;11.55;9.68;;;8.00;99.90;;;;;;2080778;28;20033;-69
2021/10/08 04:56:35;;;;;;;15.02;10.05;;;8.00;99.90;;;;;;2082350;28;20489;-69
2021/10/08 04:57:36;;;;;;;11.07;9.05;;;8.00;99.90;;;;;;2083310;28;20040;-69
2021/10/08 04:58:37;;;;;;;11.10;9.60;;;8.00;99.90;;;;;;2082850;28;20040;-69
2021/10/08 04:59:38;;;;;;;14.95;10.02;;;8.00;99.90;;;;;;2082996;28;20029;-69
2021/10/08 05:00:39;;;;;;;14.93;11.00;;;8.00;99.90;;;;;;2081726;28;20033;-68
2021/10/08 05:01:39;;;;;;;18.27;11.55;;;8.00;99.90;;;;;;2082638;28;20028;-69
2021/10/08 05:02:40;;;;;;;12.98;10.63;;;8.00;99.90;;;;;;2082459;28;20095;-68
2021/10/08 05:03:41;;;;;;;11.98;9.15;;;8.00;99.90;;;;;;2086087;28;20044;-69
2021/10/08 05:04:41;;;;;;;11.50;9.73;;;8.00;99.90;;;;;;2083119;28;20028;-69
2021/10/08 05:05:50;;;;;;;11.98;9.65;;;8.00;99.90;;;;;;2083072;28;20025;-69
2021/10/08 05:06:51;;;;;;;13.25;10.05;;;8.00;99.90;;;;;;2083440;28;20029;-69
2021/10/08 05:07:51;;;;;;;12.82;10.10;;;8.00;99.90;;;;;;2083277;28;20974;-69
2021/10/08 05:08:52;;;;;;;14.40;10.55;;;8.00;99.90;;;;;;2081468;28;20048;-68
2021/10/08 05:09:53;;;;;;;10.93;9.73;;;8.00;99.90;;;;;;2082099;28;20018;-69
2021/10/08 05:10:53;;;;;;;11.75;9.45;;;7.90;99.90;;;;;;2080834;28;20048;-68
2021/10/08 05:11:54;;;;;;;11.80;9.88;;;7.90;99.90;;;;;;2085121;28;20039;-69
2021/10/08 05:12:54;;;;;;;14.27;10.07;;;7.90;99.90;;;;;;2081979;28;20546;-69
2021/10/08 05:13:55;;;;;;;11.25;9.75;;;7.90;99.90;;;;;;2082172;28;20053;-68
2021/10/08 05:14:55;;;;;;;16.33;10.40;;;7.90;99.90;;;;;;2085833;28;20033;-69
2021/10/08 05:15:56;;;;;;;10.93;9.82;;;7.90;99.90;;;;;;2085687;28;20040;-69
2021/10/08 05:16:56;;;;;;;13.25;10.20;;;7.90;99.90;;;;;;2083541;28;20377;-69
2021/10/08 05:17:58;;;;;;;12.38;10.77;;;7.90;99.90;;;;;;2081640;28;20030;-69